Aérodrome :
LOGIN :

S'inscrire | Disclaimer

   EN    FR    IT 

 










Légende :    VFR   VFR Marginal   IFR   IFR Intensif   IFR Très Intensif
Visi : 
Plafond : 
>= 8 km
>= 3000ft
5 à 8 km
1000 à 3000 ft
1500m à 5 km
500 à 1000 ft
800 à 1500m
200 à 500 ft
< 800m
< 200 ft
Symboles :   Orages  Brouillard  Fortes neiges  Fortes précipitations  Vent > 20 kt
SIGMETs :   Divers  Orages  Givrage  Turbulence  Onde Orograph.  Cendres Volcan.






- Altitude de l'aérodrome : 364 ft
- Code IATA : FRA


EDDF - Frankfurt Int.

DERNIER METAR :
  • 210120Z 06004KT 020V090 CAVOK M00/M03 Q1044 NOSIG

METARs EXPIRÉS :
  • 210050Z 03004KT CAVOK 00/M02 Q1044 NOSIG
  • 210020Z 05003KT 330V090 CAVOK 00/M02 Q1045 NOSIG
  • 202350Z 06004KT CAVOK M01/M03 Q1045 NOSIG
  • 202320Z 07003KT 030V120 CAVOK M02/M03 Q1045 NOSIG
  • 202250Z 06003KT CAVOK M02/M03 Q1045 NOSIG

TAF TAF EDDF
Valide du 21 à 00h jusqu'au 22 à 06h UTC


202300Z 2100/2206 06005KT CAVOK
BECMG 2116/2118 VRB03KT
PROB30
TEMPO 2122/2206 4000 BR



MET'MAP, la Météo Aéronautique d'un coup d'oeil ! - Copyright ORBIFLY Décembre 2007 - Disclaimer

ORBIFLY MET'MAP TEAM :

Programmation & Développement : Alexandra Zaïnal
Sur une idée originale de : Baudouin d'Aumeries
Assistance à la programmation : Marc-Olivier Méhu
Soutien technique & logistique : Manuel Goepfert

Contact : metmap@orbifly.com




SOURCES & CREDITS :

   NOAA